Time;durP1;ratioP1;P1;durP2;ratioP2;P2;SDS_P1;SDS_P2;PMS_P1;PMS_P2;Temp;Humidity;BMP_temperature;BMP_pressure;BME280_temperature;BME280_humidity;BME280_pressure;Samples;Min_cycle;Max_cycle;Signal;HPM_P1;HPM_P2
2021/10/15 00:02:18;;;;;;;2.33;1.80;;;20.70;49.50;;;24.52;33.18;100976.66;5093014;28;20075;-9
2021/10/15 00:04:44;;;;;;;2.85;1.90;;;20.70;49.50;;;24.52;33.40;100971.31;5093172;28;20067;-9
2021/10/15 00:07:10;;;;;;;2.67;1.75;;;20.70;49.50;;;24.54;33.35;100969.34;5092801;28;20052;-9
2021/10/15 00:09:36;;;;;;;3.88;2.10;;;20.70;49.60;;;24.54;33.30;100964.00;5092809;28;20067;-9
2021/10/15 00:12:03;;;;;;;2.83;2.10;;;20.70;49.50;;;24.52;33.41;100957.94;5092794;28;20044;-9
2021/10/15 00:14:29;;;;;;;2.60;1.90;;;20.70;49.50;;;24.53;33.26;100948.97;5092767;28;20055;-9
2021/10/15 00:16:55;;;;;;;2.50;1.92;;;20.70;49.50;;;24.52;33.33;100952.59;5092780;28;20056;-9
2021/10/15 00:19:21;;;;;;;3.38;2.05;;;20.70;49.50;;;24.53;33.24;100948.97;5092528;28;20079;-9
2021/10/15 00:21:47;;;;;;;2.75;1.90;;;20.70;49.50;;;24.50;33.29;100944.69;5092962;28;20499;-9
2021/10/15 00:24:13;;;;;;;4.30;2.13;;;20.70;49.50;;;24.53;33.23;100943.63;5093155;28;20956;-9
2021/10/15 00:26:39;;;;;;;2.33;1.73;;;20.70;49.50;;;24.50;33.42;100933.16;5092604;28;20059;-9
2021/10/15 00:29:08;;;;;;;2.42;1.88;;;20.70;49.50;;;24.51;33.23;100937.53;5092813;28;20450;-9
2021/10/15 00:31:34;;;;;;;2.88;2.20;;;20.70;49.50;;;24.50;33.16;100923.28;5092115;28;20442;-9
2021/10/15 00:33:59;;;;;;;2.35;1.88;;;20.70;49.50;;;24.49;33.11;100924.28;5096417;28;20048;-9
2021/10/15 00:36:25;;;;;;;3.03;1.80;;;20.70;49.50;;;24.52;33.26;100926.69;5096459;28;20388;-9
2021/10/15 00:38:51;;;;;;;2.72;1.95;;;20.70;49.50;;;24.48;33.40;100911.03;5096209;28;20071;-9
2021/10/15 00:41:17;;;;;;;2.85;1.85;;;20.70;49.50;;;24.51;33.39;100919.66;5096274;28;20373;-9
2021/10/15 00:44:05;;;;;;;3.97;2.20;;;20.70;49.50;;;24.50;33.42;100904.59;5096143;28;20517;-9
2021/10/15 00:46:33;;;;;;;2.30;1.70;;;20.70;49.50;;;24.50;33.23;100904.59;5095942;28;20055;-9
2021/10/15 00:49:01;;;;;;;3.17;2.00;;;20.70;49.50;;;24.49;33.24;100913.59;5095898;28;20044;-9
2021/10/15 00:51:27;;;;;;;2.60;2.03;;;20.70;49.50;;;24.49;33.23;100897.56;5096126;28;20403;-9
2021/10/15 00:53:53;;;;;;;2.83;1.63;;;20.70;49.60;;;24.48;33.41;100892.31;5095961;28;20044;-9
2021/10/15 00:56:20;;;;;;;3.90;2.30;;;20.70;49.50;;;24.47;33.31;100893.28;5077734;28;20097;-9
2021/10/15 00:58:45;;;;;;;2.53;1.75;;;20.70;49.50;;;24.50;33.31;100899.25;5095531;28;20048;-9
2021/10/15 01:01:11;;;;;;;3.28;2.22;;;20.70;49.60;;;24.49;33.33;100892.22;5095806;28;20136;-9
2021/10/15 01:03:37;;;;;;;2.22;1.70;;;20.60;49.60;;;24.46;33.34;100889.78;5091756;28;20044;-9
2021/10/15 01:06:04;;;;;;;3.50;1.98;;;20.60;49.60;;;24.49;33.21;100878.84;5077616;28;20059;-9
2021/10/15 01:08:32;;;;;;;4.70;1.88;;;20.60;49.50;;;24.49;33.30;100872.63;5095601;28;20048;-9
2021/10/15 01:10:58;;;;;;;3.47;1.90;;;20.60;49.50;;;24.50;33.44;100871.66;5095863;28;20510;-9
2021/10/15 01:13:25;;;;;;;4.45;2.38;;;20.70;49.60;;;24.49;33.27;100867.28;5095512;28;20051;-9
2021/10/15 01:15:51;;;;;;;3.45;1.80;;;20.70;49.50;;;24.46;33.30;100859.50;5095533;28;20126;-9
2021/10/15 01:18:17;;;;;;;2.70;1.80;;;20.70;49.50;;;24.48;33.17;100862.94;5096050;28;20142;-9
2021/10/15 01:20:48;;;;;;;2.00;1.60;;;20.70;49.60;;;24.47;33.44;100850.53;5095513;28;20105;-9
2021/10/15 01:23:14;;;;;;;2.88;2.05;;;20.70;49.60;;;24.49;33.38;100857.47;5095553;28;20050;-9
2021/10/15 01:25:40;;;;;;;2.38;2.00;;;20.70;49.60;;;24.47;33.26;100846.03;5095680;28;20048;-9
2021/10/15 01:28:05;;;;;;;2.50;1.80;;;20.60;49.50;;;24.48;33.24;100847.72;5095648;28;20043;-9
2021/10/15 01:30:31;;;;;;;2.13;1.83;;;20.60;49.50;;;24.48;33.37;100846.88;5094974;28;20036;-9
2021/10/15 01:32:57;;;;;;;2.45;2.10;;;20.60;49.50;;;24.46;33.45;100844.34;5095229;28;20039;-9
2021/10/15 01:35:23;;;;;;;2.15;1.70;;;20.60;49.60;;;24.46;33.31;100825.63;5095366;28;20484;-9
2021/10/15 01:37:48;;;;;;;3.13;2.00;;;20.60;49.60;;;24.49;33.26;100827.19;5095094;28;20475;-9
2021/10/15 01:40:14;;;;;;;2.17;1.67;;;20.70;49.70;;;24.48;33.41;100821.00;5095152;28;20059;-9
2021/10/15 01:42:55;;;;;;;3.60;2.22;;;20.60;49.50;;;24.47;33.29;100821.13;5095218;28;20051;-9
2021/10/15 01:45:23;;;;;;;1.95;1.45;;;20.60;49.50;;;24.49;33.30;100819.16;5095057;28;20078;-9
2021/10/15 01:47:49;;;;;;;1.67;1.30;;;20.60;49.50;;;24.44;33.26;100803.53;5094889;28;20510;-9
2021/10/15 01:50:15;;;;;;;4.15;2.13;;;20.70;49.60;;;24.46;33.28;100806.91;5094829;28;20048;-9
2021/10/15 01:52:40;;;;;;;2.45;2.20;;;20.70;49.60;;;24.43;33.40;100796.47;5094839;28;20096;-9
2021/10/15 01:55:08;;;;;;;3.10;1.77;;;20.70;49.50;;;24.42;33.51;100798.28;5095012;28;20040;-9
2021/10/15 01:57:35;;;;;;;2.95;2.30;;;20.70;49.60;;;24.43;33.30;100788.44;5095134;28;20052;-9
2021/10/15 02:00:04;;;;;;;2.72;1.77;;;20.60;49.50;;;24.45;33.40;100786.50;5094766;28;20404;-9
2021/10/15 02:02:38;;;;;;;2.13;1.58;;;20.60;49.50;;;24.45;33.40;100774.97;5094846;28;20052;-9
2021/10/15 02:05:09;;;;;;;4.05;2.35;;;20.60;49.60;;;24.43;33.22;100772.41;5094846;28;20047;-9
2021/10/15 02:07:38;;;;;;;3.13;2.10;;;20.70;49.60;;;24.43;33.38;100756.38;5095041;28;20071;-9
2021/10/15 02:10:06;;;;;;;2.08;1.63;;;20.60;49.50;;;24.45;33.21;100757.09;5076587;28;20484;-9
2021/10/15 02:12:32;;;;;;;2.20;1.67;;;20.70;49.60;;;24.42;33.33;100743.97;5095180;28;20052;-9
2021/10/15 02:14:58;;;;;;;2.53;2.03;;;20.70;49.60;;;24.47;33.24;100746.28;5094753;28;20040;-9
2021/10/15 02:17:24;;;;;;;4.10;1.92;;;20.60;49.60;;;24.43;33.29;100745.69;5094531;28;20079;-9
2021/10/15 02:19:50;;;;;;;2.75;1.95;;;20.60;49.60;;;24.42;33.32;100731.47;5094334;28;20036;-9
2021/10/15 02:22:16;;;;;;;3.25;2.00;;;20.60;49.60;;;24.45;33.21;100733.03;5094474;28;20048;-9
2021/10/15 02:24:42;;;;;;;2.17;1.48;;;20.60;49.60;;;24.44;33.19;100728.69;5094819;28;20557;-10
2021/10/15 02:27:08;;;;;;;3.30;2.03;;;20.60;49.60;;;24.44;33.15;100728.69;5094434;28;20434;-9
2021/10/15 02:29:33;;;;;;;1.90;1.60;;;20.60;49.60;;;24.44;33.20;100725.13;5094720;28;20051;-9
2021/10/15 02:31:59;;;;;;;2.58;1.65;;;20.60;49.50;;;24.41;33.34;100716.41;5094298;28;20392;-9
2021/10/15 02:34:25;;;;;;;2.58;1.52;;;20.60;49.60;;;24.42;33.45;100712.78;5094451;28;20126;-9
2021/10/15 02:36:51;;;;;;;2.35;1.70;;;20.60;49.50;;;24.44;33.37;100717.13;5094232;28;20052;-9
2021/10/15 02:39:17;;;;;;;2.28;1.63;;;20.60;49.60;;;24.40;33.30;100708.50;5094376;28;20442;-9
2021/10/15 02:41:43;;;;;;;2.03;1.65;;;20.60;49.60;;;24.43;33.28;100710.94;5094210;28;20048;-9
2021/10/15 02:44:11;;;;;;;2.13;1.92;;;20.60;49.60;;;24.40;33.39;100695.97;5094415;28;20177;-9
2021/10/15 02:46:39;;;;;;;3.42;1.52;;;20.60;49.60;;;24.38;33.40;100687.25;5076055;28;20091;-9
2021/10/15 02:49:06;;;;;;;2.42;1.90;;;20.60;49.60;;;24.41;33.21;100697.69;5094241;28;20134;-9
2021/10/15 02:51:33;;;;;;;2.35;1.70;;;20.60;49.60;;;24.41;33.21;100684.34;5093952;28;20040;-9
2021/10/15 02:53:59;;;;;;;2.63;1.55;;;20.60;49.70;;;24.38;33.32;100681.91;5093425;28;20048;-9
2021/10/15 02:56:25;;;;;;;2.08;1.50;;;20.60;49.60;;;24.40;33.36;100677.28;5093999;28;20052;-9
2021/10/15 02:58:51;;;;;;;2.25;1.67;;;20.60;49.70;;;24.42;33.18;100680.69;5093732;28;20056;-9
2021/10/15 03:01:16;;;;;;;2.15;1.50;;;20.50;49.70;;;24.39;33.24;100667.56;5094129;28;20048;-9
2021/10/15 03:03:43;;;;;;;1.95;1.50;;;20.40;50.00;;;24.39;33.26;100664.91;5094498;28;20048;-9
2021/10/15 03:06:09;;;;;;;2.15;1.75;;;20.40;50.10;;;24.41;33.53;100662.13;5093734;28;20055;-9
2021/10/15 03:08:35;;;;;;;2.92;1.67;;;20.40;50.10;;;24.41;33.48;100660.28;5093834;28;20048;-9
2021/10/15 03:11:01;;;;;;;2.42;1.80;;;20.40;50.10;;;24.43;33.33;100657.50;5093618;28;20052;-9
2021/10/15 03:13:27;;;;;;;3.20;2.05;;;20.50;49.90;;;24.41;33.48;100649.59;5090077;28;20051;-9
2021/10/15 03:15:53;;;;;;;1.67;1.48;;;20.60;49.70;;;24.42;33.31;100647.75;5093982;28;20078;-9
2021/10/15 03:18:19;;;;;;;2.05;1.63;;;20.60;49.70;;;24.46;33.20;100656.38;5093444;28;20052;-9
2021/10/15 03:20:45;;;;;;;2.78;1.60;;;20.70;49.70;;;24.48;33.56;100641.94;5093465;28;20076;-9
2021/10/15 03:23:12;;;;;;;2.15;1.80;;;20.60;49.70;;;24.51;33.34;100646.19;5075498;28;20560;-9
2021/10/15 03:25:38;;;;;;;2.22;1.70;;;20.60;49.80;;;24.51;33.28;100646.19;5093718;28;20048;-9
2021/10/15 03:28:05;;;;;;;1.77;1.63;;;20.60;49.80;;;24.54;33.43;100637.91;5094110;28;20388;-9
2021/10/15 03:30:33;;;;;;;2.58;2.00;;;20.70;49.70;;;24.54;33.40;100630.75;5093154;28;20048;-9
2021/10/15 03:33:02;;;;;;;2.72;1.70;;;20.80;49.60;;;24.58;33.19;100632.22;5093352;28;20056;-9
2021/10/15 03:35:29;;;;;;;2.75;1.77;;;20.80;49.40;;;24.62;33.46;100642.66;5093364;28;20044;-9
2021/10/15 03:37:54;;;;;;;2.63;1.67;;;20.80;49.40;;;24.63;33.46;100625.66;5093148;28;20051;-9
2021/10/15 03:40:20;;;;;;;2.20;1.77;;;20.90;49.40;;;24.68;33.30;100635.00;5093158;28;20550;-9
2021/10/15 03:42:46;;;;;;;2.00;1.80;;;20.90;49.40;;;24.68;33.32;100632.34;5075268;28;20055;-9
2021/10/15 03:45:11;;;;;;;2.22;1.90;;;21.00;49.30;;;24.71;33.17;100626.75;5093157;28;20130;-9
2021/10/15 03:47:37;;;;;;;2.45;1.95;;;21.00;49.10;;;24.73;33.30;100619.44;5093369;28;20040;-9
2021/10/15 03:50:07;;;;;;;2.17;1.50;;;21.00;49.00;;;24.77;33.05;100620.91;5093069;28;20487;-9
2021/10/15 03:52:33;;;;;;;1.58;1.27;;;21.00;49.00;;;24.79;33.28;100618.06;5093106;28;20044;-9
2021/10/15 03:54:59;;;;;;;2.45;1.70;;;21.10;48.90;;;24.83;33.27;100613.34;5093408;28;20044;-9
2021/10/15 03:57:25;;;;;;;1.75;1.60;;;21.10;48.80;;;24.85;33.01;100611.38;5092982;28;20048;-9
2021/10/15 03:59:50;;;;;;;2.00;1.55;;;21.20;48.80;;;24.83;33.03;100602.66;5092804;28;20040;-9
2021/10/15 04:02:16;;;;;;;1.65;1.50;;;21.20;48.60;;;24.87;32.97;100601.41;5093250;28;20040;-9
2021/10/15 04:04:42;;;;;;;2.03;1.33;;;21.20;48.60;;;24.86;33.01;100592.53;5091843;28;20052;-9
2021/10/15 04:07:08;;;;;;;1.92;1.50;;;21.20;48.60;;;24.90;33.06;100599.31;5074754;28;20052;-9
2021/10/15 04:09:33;;;;;;;2.55;1.58;;;21.20;48.60;;;24.90;33.10;100579.75;5092782;28;20077;-9
2021/10/15 04:11:59;;;;;;;2.10;1.40;;;21.20;48.60;;;24.89;32.96;100583.41;5092547;28;20488;-9
2021/10/15 04:14:25;;;;;;;1.50;1.25;;;21.20;48.50;;;24.93;33.09;100588.38;5092763;28;20050;-9
2021/10/15 04:16:51;;;;;;;2.40;1.77;;;21.20;48.60;;;24.93;33.02;100583.03;5093103;28;20051;-9
2021/10/15 04:19:17;;;;;;;2.47;1.75;;;21.20;48.60;;;24.94;32.94;100575.84;5092611;28;20048;-9
2021/10/15 04:21:43;;;;;;;1.92;1.60;;;21.20;48.60;;;24.91;32.88;100568.09;5092773;28;20044;-9
2021/10/15 04:24:09;;;;;;;1.88;1.30;;;21.20;48.60;;;24.93;33.03;100580.34;5093033;28;20044;-9
2021/10/15 04:26:35;;;;;;;1.77;1.30;;;21.20;48.60;;;24.92;32.88;100564.44;5092925;28;20404;-9
2021/10/15 04:29:00;;;;;;;2.58;2.00;;;21.20;48.70;;;24.92;32.87;100567.94;5092645;28;20434;-9
2021/10/15 04:31:26;;;;;;;2.47;1.83;;;21.20;48.70;;;24.91;32.86;100563.59;5092527;28;20545;-9
2021/10/15 04:33:52;;;;;;;2.17;1.45;;;21.20;48.70;;;24.94;32.75;100557.13;5092852;28;20052;-9
2021/10/15 04:36:17;;;;;;;3.70;1.63;;;21.10;48.70;;;24.94;32.83;100554.44;5092863;28;20052;-9
2021/10/15 04:38:43;;;;;;;1.48;1.30;;;21.20;48.70;;;24.91;32.89;100546.69;5092658;28;20048;-9
2021/10/15 04:41:09;;;;;;;2.03;1.30;;;21.10;48.70;;;24.92;32.86;100549.22;5092406;28;20605;-9
2021/10/15 04:43:35;;;;;;;1.63;1.40;;;21.10;48.60;;;24.92;32.93;100548.38;5092761;28;20559;-9
2021/10/15 04:46:01;;;;;;;2.35;1.67;;;21.10;48.60;;;24.91;32.80;100539.53;5092333;28;20040;-9
2021/10/15 04:48:26;;;;;;;2.45;1.75;;;21.10;48.80;;;24.92;32.95;100538.53;5092401;28;20052;-9
2021/10/15 04:50:52;;;;;;;3.00;1.73;;;21.10;48.90;;;24.91;32.94;100533.34;5092251;28;20048;-9
2021/10/15 04:53:19;;;;;;;2.35;1.50;;;21.00;48.80;;;24.91;32.77;100533.34;5092599;28;20131;-9
2021/10/15 04:55:45;;;;;;;1.70;1.50;;;21.00;48.90;;;24.88;32.95;100531.75;5092284;28;20044;-9
2021/10/15 04:58:10;;;;;;;1.40;1.30;;;21.00;49.10;;;24.91;32.71;100527.97;5092241;28;20055;-9
2021/10/15 05:00:36;;;;;;;1.98;1.50;;;21.00;49.00;;;24.86;32.68;100520.34;5092274;28;20112;-9
2021/10/15 05:03:02;;;;;;;2.10;1.48;;;21.00;48.80;;;24.87;32.83;100527.38;5092790;28;20101;-9
2021/10/15 05:05:28;;;;;;;1.52;1.42;;;21.00;49.00;;;24.89;32.88;100519.22;5092150;28;20377;-9
2021/10/15 05:07:56;;;;;;;2.20;1.70;;;21.00;48.90;;;24.87;32.82;100518.50;5092087;28;20087;-9
2021/10/15 05:10:22;;;;;;;1.75;1.60;;;21.00;49.10;;;24.87;32.97;100510.47;5092462;28;20052;-9
2021/10/15 05:12:52;;;;;;;1.92;1.40;;;20.90;49.20;;;24.85;32.95;100501.75;5091930;28;20102;-9
2021/10/15 05:15:19;;;;;;;1.40;1.30;;;21.00;49.00;;;24.82;32.96;100494.81;5092417;28;20048;-9
2021/10/15 05:17:45;;;;;;;2.28;1.45;;;21.00;49.40;;;24.85;33.00;100491.06;5095388;28;20105;-9
2021/10/15 05:20:16;;;;;;;1.88;1.55;;;21.00;48.90;;;24.84;33.09;100497.38;5095209;28;20044;-9
2021/10/15 05:22:43;;;;;;;1.90;1.40;;;21.00;48.90;;;24.82;32.99;100491.31;5076797;28;20476;-9
2021/10/15 05:25:10;;;;;;;1.77;1.55;;;21.00;48.80;;;24.81;32.86;100490.47;5095362;28;20040;-9
2021/10/15 05:27:36;;;;;;;2.30;1.90;;;21.10;48.90;;;24.81;32.90;100486.91;5095325;28;20063;-9
2021/10/15 05:30:05;;;;;;;1.77;1.52;;;21.10;48.80;;;24.82;33.03;100486.78;5095262;28;20039;-9
2021/10/15 05:32:31;;;;;;;1.95;1.60;;;21.10;48.90;;;24.81;33.01;100470.88;5095321;28;20067;-9
2021/10/15 05:34:56;;;;;;;3.10;1.60;;;21.00;49.10;;;24.82;32.83;100475.25;5095760;28;20051;-9
2021/10/15 05:37:22;;;;;;;3.40;1.65;;;21.00;49.00;;;24.80;33.04;100467.38;5095437;28;20051;-10
2021/10/15 05:39:48;;;;;;;2.03;1.50;;;21.00;48.90;;;24.81;32.85;100466.41;5095205;28;20126;-9
2021/10/15 05:42:14;;;;;;;2.25;1.50;;;21.00;48.90;;;24.83;32.91;100458.25;5095212;28;20149;-9
2021/10/15 05:44:40;;;;;;;2.45;1.50;;;21.00;48.90;;;24.80;32.83;100454.00;5095100;28;20500;-9
2021/10/15 05:47:06;;;;;;;1.88;1.52;;;21.00;48.90;;;24.78;33.05;100456.78;5093774;28;20496;-9
2021/10/15 05:49:39;;;;;;;2.65;1.40;;;21.00;49.00;;;24.82;32.98;100452.03;5095041;28;20059;-9
2021/10/15 05:52:10;;;;;;;4.68;1.92;;;21.00;48.90;;;24.79;32.86;100436.25;5094915;28;20048;-9
2021/10/15 05:58:48;;;;;;;2.75;1.40;;;21.00;49.00;;;24.80;32.85;100432.59;5095178;28;20048;-9
2021/10/15 06:00:10;;;;;;;3.60;1.60;;;21.00;49.00;;;24.79;32.95;100433.56;5095158;28;20134;-9
2021/10/15 06:02:44;;;;;;;2.28;1.60;;;21.10;49.00;;;24.77;32.98;100427.50;5094827;28;20083;-10
2021/10/15 06:15:52;;;;;;;2.35;1.75;;;21.00;48.90;;;24.77;33.10;100427.50;5094850;28;20044;-10
2021/10/15 06:18:23;;;;;;;1.40;1.30;;;21.00;48.90;;;24.77;32.87;100419.50;5094827;28;20048;-10
2021/10/15 06:20:53;;;;;;;2.28;1.35;;;21.10;49.00;;;24.76;33.18;100420.50;5094906;28;20051;-10
2021/10/15 06:23:20;;;;;;;2.00;1.55;;;21.00;48.90;;;24.78;32.93;100422.03;5094471;28;20044;-9
2021/10/15 06:25:47;;;;;;;2.28;1.40;;;21.00;48.90;;;24.77;33.06;100417.69;5094514;28;20040;-10
2021/10/15 06:28:13;;;;;;;1.60;1.33;;;21.00;49.00;;;24.78;33.13;100423.88;5093468;28;20071;-10
2021/10/15 06:30:40;;;;;;;2.25;1.67;;;21.00;49.10;;;24.78;32.90;100414.00;5094648;28;20460;-10
2021/10/15 06:33:07;;;;;;;1.92;1.50;;;21.00;49.10;;;24.75;33.07;100402.75;5094397;28;20577;-10
2021/10/15 06:35:33;;;;;;;1.90;1.60;;;21.00;49.10;;;24.76;33.08;100407.13;5094363;28;20048;-10
2021/10/15 06:37:59;;;;;;;2.15;1.42;;;21.00;49.00;;;24.75;33.15;100406.25;5094351;28;20507;-10
2021/10/15 06:40:25;;;;;;;1.85;1.58;;;21.00;49.60;;;24.75;33.10;100394.72;5094307;28;20051;-9
2021/10/15 06:42:51;;;;;;;1.85;1.20;;;21.00;49.00;;;24.76;33.08;100404.44;5094263;28;20065;-10
2021/10/15 06:45:17;;;;;;;1.88;1.55;;;21.00;49.10;;;24.77;32.94;100417.69;5094070;28;20048;-10
2021/10/15 06:47:43;;;;;;;1.35;1.25;;;21.00;49.10;;;24.77;33.05;100489.00;5094290;28;20089;-10
2021/10/15 06:50:10;;;;;;;1.38;1.27;;;21.00;49.10;;;24.74;33.10;100481.25;5074619;28;20056;-10
2021/10/15 06:52:40;;;;;;;2.60;1.40;;;21.00;49.20;;;24.77;33.16;100497.91;5091228;28;20056;-10
2021/10/15 06:55:06;;;;;;;1.45;1.35;;;21.00;49.30;;;24.75;33.11;100513.19;5093947;28;20044;-10
2021/10/15 06:57:32;;;;;;;1.52;1.42;;;21.00;49.20;;;24.77;32.92;100531.78;5093990;28;20531;-10
2021/10/15 06:59:58;;;;;;;2.05;1.27;;;21.00;49.10;;;24.78;33.03;100541.53;5094008;28;20048;-10
2021/10/15 07:02:24;;;;;;;2.00;1.50;;;21.00;49.10;;;24.78;33.13;100547.72;5093839;28;20048;-9
2021/10/15 07:04:50;;;;;;;1.63;1.42;;;21.00;49.00;;;24.76;33.23;100552.34;5093898;28;20040;-10
2021/10/15 07:07:16;;;;;;;1.52;1.27;;;21.00;49.00;;;24.77;33.24;100572.78;5094399;28;20103;-10
2021/10/15 07:09:42;;;;;;;1.60;1.50;;;21.00;49.20;;;24.77;33.24;100572.78;5093733;28;20051;-10
2021/10/15 07:12:08;;;;;;;1.60;1.48;;;21.00;49.20;;;24.78;33.07;100574.44;5093622;28;20044;-10
2021/10/15 07:14:33;;;;;;;1.52;1.33;;;21.00;49.30;;;24.76;33.17;100580.91;5093731;28;20044;-10
2021/10/15 07:16:59;;;;;;;2.40;1.25;;;20.90;49.50;;;24.77;33.19;100591.50;5093665;28;20044;-10
2021/10/15 07:19:25;;;;;;;1.98;1.73;;;20.80;49.70;;;24.79;33.12;100602.03;5093542;28;20056;-10
2021/10/15 07:21:51;;;;;;;1.52;1.42;;;20.80;49.70;;;24.76;33.09;100600.47;5076024;28;20082;-10
2021/10/15 07:24:17;;;;;;;2.53;1.70;;;20.80;49.70;;;24.76;33.02;100603.16;5093855;28;20036;-10
2021/10/15 07:26:42;;;;;;;2.08;1.23;;;20.90;49.50;;;24.78;33.16;100619.06;5093774;28;20039;-10
2021/10/15 07:29:08;;;;;;;2.58;1.13;;;20.90;49.30;;;24.77;33.08;100633.41;5093435;28;20043;-9
2021/10/15 07:31:35;;;;;;;1.35;1.20;;;21.00;49.20;;;24.78;33.29;100649.31;5075564;28;20373;-10
2021/10/15 07:34:02;;;;;;;1.83;1.20;;;21.00;49.10;;;24.76;33.25;100667.31;5093320;28;20072;-10
2021/10/15 07:36:27;;;;;;;1.40;1.30;;;21.00;49.10;;;24.76;32.99;100686.03;5093363;28;20039;-10
2021/10/15 07:38:53;;;;;;;1.95;1.50;;;21.00;49.20;;;24.76;33.06;100688.72;5093087;28;20063;-10
2021/10/15 07:41:19;;;;;;;1.40;1.30;;;21.00;49.20;;;24.76;33.18;100695.88;5093708;28;20480;-10
2021/10/15 07:43:47;;;;;;;1.98;1.45;;;21.00;49.10;;;24.78;32.99;100694.78;5093244;28;20044;-10
2021/10/15 07:46:13;;;;;;;1.50;1.40;;;21.00;49.10;;;24.76;33.25;100686.03;5093526;28;20048;-10
2021/10/15 07:48:39;;;;;;;1.77;1.23;;;21.00;49.20;;;24.73;33.22;100694.31;5093114;28;20054;-10
2021/10/15 07:51:05;;;;;;;2.08;1.25;;;20.90;49.40;;;24.77;33.33;100698.44;5093008;28;20044;-9
2021/10/15 07:53:30;;;;;;;3.13;1.50;;;20.80;49.60;;;24.80;33.25;100715.22;5093108;28;20048;-10
2021/10/15 07:55:56;;;;;;;1.50;1.20;;;20.70;49.70;;;24.78;33.14;100718.84;5093029;28;20056;-10
2021/10/15 07:58:22;;;;;;;1.10;1.00;;;20.70;49.80;;;24.79;33.03;100717.00;5091371;28;20404;-9
2021/10/15 08:00:48;;;;;;;1.88;1.30;;;20.70;49.80;;;24.81;33.14;100725.78;5093451;28;20056;-10
2021/10/15 08:03:14;;;;;;;1.23;1.15;;;20.70;49.80;;;24.80;33.10;100726.75;5093065;28;20052;-10
2021/10/15 08:05:40;;;;;;;1.92;1.40;;;20.80;50.30;;;24.80;33.13;100726.75;5092884;28;20075;-9
2021/10/15 08:08:06;;;;;;;1.50;1.40;;;20.80;49.80;;;24.79;33.16;100725.03;5093180;28;20052;-10
2021/10/15 08:10:32;;;;;;;1.40;1.17;;;20.80;49.70;;;24.78;32.99;100716.16;5093273;28;20051;-10
2021/10/15 08:13:00;;;;;;;1.58;1.40;;;20.80;49.60;;;24.79;33.05;100717.00;5092901;28;20048;-10
2021/10/15 08:15:27;;;;;;;1.50;1.40;;;20.90;49.60;;;24.82;32.90;100724.78;5092478;28;20048;-10
2021/10/15 08:17:53;;;;;;;2.17;1.10;;;20.80;49.60;;;24.82;33.08;100727.47;5092635;28;20067;-10
2021/10/15 08:20:22;;;;;;;1.80;1.20;;;20.80;49.70;;;24.81;33.02;100728.44;5092437;28;20055;-10
2021/10/15 08:22:52;;;;;;;1.60;1.25;;;20.80;49.80;;;24.76;33.20;100733.31;5092642;28;20131;-10
2021/10/15 08:25:18;;;;;;;1.97;1.70;;;20.80;49.80;;;24.80;33.01;100742.78;5092970;28;20051;-10
2021/10/15 08:27:44;;;;;;;1.88;1.20;;;20.70;49.80;;;24.79;33.04;100754.44;5092801;28;20044;-10
2021/10/15 08:30:10;;;;;;;1.70;1.23;;;20.70;50.00;;;24.79;33.22;100773.16;5092302;28;20051;-10
2021/10/15 08:32:36;;;;;;;1.77;1.20;;;20.70;49.80;;;24.77;32.91;100757.28;5092796;28;20135;-10
2021/10/15 08:35:04;;;;;;;1.50;1.20;;;20.80;49.80;;;24.75;33.18;100756.53;5092789;28;20134;-10
2021/10/15 08:37:29;;;;;;;2.05;1.30;;;20.80;49.60;;;24.76;32.96;100776.94;5092520;28;20044;-10
2021/10/15 08:39:57;;;;;;;1.67;1.30;;;20.90;49.40;;;24.78;33.04;100774.16;5092473;28;20524;-10
2021/10/15 08:42:23;;;;;;;1.38;1.23;;;21.00;49.40;;;24.78;33.04;100782.19;5092553;28;20048;-9
2021/10/15 08:44:49;;;;;;;1.55;1.40;;;21.00;49.80;;;24.77;33.23;100788.47;5092739;28;20036;-10
2021/10/15 08:47:17;;;;;;;1.70;1.00;;;21.00;49.20;;;24.75;33.05;100812.66;5092571;28;20369;-9
2021/10/15 08:49:45;;;;;;;1.65;1.55;;;21.00;49.20;;;24.75;33.06;100815.34;5092365;28;20050;-10
2021/10/15 08:52:15;;;;;;;1.40;1.17;;;21.00;49.20;;;24.74;33.06;100831.50;5095540;28;20048;-10
2021/10/15 08:54:45;;;;;;;1.52;1.42;;;21.00;49.20;;;24.76;33.04;100848.31;5095933;28;20055;-10
2021/10/15 08:57:13;;;;;;;2.45;1.70;;;21.00;49.20;;;24.73;33.12;100846.72;5095558;28;20048;-10
2021/10/15 08:59:46;;;;;;;1.42;1.30;;;21.00;49.20;;;24.72;33.20;100836.97;5095926;28;20134;-9
2021/10/15 09:02:15;;;;;;;2.25;1.50;;;21.00;49.20;;;24.74;33.19;100826.16;5095775;28;20097;-10
2021/10/15 09:04:54;;;;;;;1.67;1.20;;;21.00;49.20;;;24.71;33.07;100787.16;5095644;28;20050;-10
2021/10/15 09:07:24;;;;;;;1.80;1.40;;;21.00;49.20;;;24.74;33.18;100797.63;5095699;28;20055;-10
2021/10/15 09:10:09;;;;;;;4.32;1.42;;;21.00;49.30;;;24.74;33.21;100797.63;5095725;28;20488;-10
2021/10/15 09:12:43;;;;;;;1.40;1.30;;;21.00;49.30;;;24.73;33.08;100808.44;5095609;28;20059;-10
2021/10/15 09:15:09;;;;;;;1.40;1.10;;;21.00;49.30;;;24.72;33.02;100825.44;5077561;28;20446;-10
2021/10/15 09:17:51;;;;;;;1.40;1.17;;;21.00;49.30;;;24.70;33.26;100828.22;5077141;28;20050;-11
2021/10/15 09:20:37;;;;;;;1.65;1.35;;;21.00;49.30;;;24.74;33.13;100848.41;5095462;28;20139;-10
2021/10/15 09:23:05;;;;;;;1.80;1.52;;;21.00;49.30;;;24.75;33.14;100858.13;5095159;28;20060;-10
2021/10/15 09:25:36;;;;;;;1.13;0.98;;;21.00;49.30;;;24.74;33.25;100866.25;5095875;28;20056;-10
2021/10/15 09:28:19;;;;;;;1.45;1.20;;;21.00;49.20;;;24.74;33.16;100885.84;5095476;28;20040;-9
2021/10/15 09:30:50;;;;;;;2.10;1.42;;;20.90;49.50;;;24.73;33.17;100884.13;5095601;28;20464;-10
2021/10/15 09:33:18;;;;;;;1.40;1.30;;;20.80;49.70;;;24.74;33.19;100884.97;5095419;28;20051;-10
2021/10/15 09:35:44;;;;;;;1.30;1.17;;;20.80;49.80;;;24.73;33.16;100886.81;5095316;28;20055;-10
2021/10/15 09:38:10;;;;;;;1.40;1.17;;;20.80;49.70;;;24.76;33.25;100894.59;5076984;28;20058;-10
2021/10/15 09:40:48;;;;;;;1.20;1.10;;;20.80;49.70;;;24.76;33.18;100889.25;5095178;28;20048;-10
2021/10/15 09:43:14;;;;;;;1.63;1.40;;;20.80;49.70;;;24.80;33.40;100883.66;5095243;28;20051;-10
2021/10/15 09:45:47;;;;;;;1.63;1.48;;;20.80;49.80;;;24.76;33.29;100867.03;5093858;28;20404;-10
2021/10/15 09:48:25;;;;;;;1.80;1.40;;;20.80;49.90;;;24.79;33.16;100877.44;5094958;28;20055;-10
2021/10/15 09:51:20;;;;;;;2.22;1.50;;;20.70;49.80;;;24.83;33.14;100889.63;5093644;28;20055;-10
2021/10/15 09:54:14;;;;;;;2.63;1.20;;;20.80;49.90;;;24.86;33.20;100912.59;5095214;28;20048;-10
2021/10/15 09:56:51;;;;;;;2.08;1.38;;;20.80;49.90;;;24.85;32.97;100908.22;5094706;28;20063;-10
2021/10/15 09:59:18;;;;;;;1.70;1.60;;;20.80;49.90;;;24.88;33.23;100914.19;5077593;28;20040;-10
2021/10/15 10:01:44;;;;;;;1.75;1.45;;;20.90;49.80;;;24.89;33.17;100917.72;5093911;28;20052;-10
2021/10/15 10:04:11;;;;;;;1.40;1.30;;;20.90;49.80;;;24.88;33.20;100910.66;5094440;28;20051;-10
2021/10/15 10:06:37;;;;;;;1.65;1.45;;;20.90;49.60;;;24.92;33.15;100925.50;5094504;28;20051;-9
2021/10/15 10:09:05;;;;;;;1.60;1.50;;;21.00;49.50;;;24.95;33.20;100931.44;5094793;28;20396;-10
2021/10/15 10:11:31;;;;;;;1.77;1.50;;;21.00;49.40;;;24.97;33.06;100928.66;5076437;28;20078;-10
2021/10/15 10:13:57;;;;;;;1.60;1.30;;;21.10;49.40;;;25.01;32.99;100932.81;5094610;28;20534;-10
2021/10/15 10:16:25;;;;;;;1.33;1.23;;;21.10;49.40;;;25.01;33.04;100927.47;5094383;28;20056;-9
2021/10/15 10:18:58;;;;;;;1.60;1.40;;;21.10;49.90;;;25.03;33.12;100928.19;5094625;28;20048;-10
2021/10/15 10:21:30;;;;;;;1.48;1.35;;;21.10;49.30;;;25.07;32.96;100926.13;5094390;28;20060;-10
2021/10/15 10:24:06;;;;;;;2.67;1.30;;;21.10;49.30;;;25.08;33.04;100931.34;5094834;28;20052;-10
2021/10/15 10:26:50;;;;;;;2.17;1.30;;;21.10;49.20;;;25.10;33.03;100937.44;5076442;28;20073;-10
2021/10/15 10:29:17;;;;;;;2.15;1.60;;;21.20;49.30;;;25.11;33.06;100936.47;5094719;28;20052;-10
2021/10/15 10:31:43;;;;;;;2.17;1.40;;;21.10;49.20;;;25.13;32.93;100933.69;5094526;28;20481;-10
2021/10/15 10:34:14;;;;;;;2.60;1.63;;;21.10;49.20;;;25.17;33.04;100942.31;5094618;28;20047;-10